Time;durP1;ratioP1;P1;durP2;ratioP2;P2;SDS_P1;SDS_P2;PMS_P1;PMS_P2;Temp;Humidity;BMP_temperature;BMP_pressure;BME280_temperature;BME280_humidity;BME280_pressure;Samples;Min_cycle;Max_cycle;Signal;HPM_P1;HPM_P2
2023/05/19 00:00:52;;;;;;;9.25;3.75;;;8.30;99.90;;;;;;5116183;27;20047;-72
2023/05/19 00:03:20;;;;;;;5.45;2.90;;;8.30;99.90;;;;;;5115980;28;20111;-73
2023/05/19 00:05:47;;;;;;;8.05;3.08;;;8.30;99.90;;;;;;5116310;28;20047;-71
2023/05/19 00:08:16;;;;;;;8.18;3.30;;;8.30;99.90;;;;;;5116212;28;20040;-72
2023/05/19 00:10:42;;;;;;;10.35;3.60;;;8.20;99.90;;;;;;5116277;28;20344;-72
2023/05/19 00:13:08;;;;;;;4.03;2.80;;;8.20;99.90;;;;;;5115700;28;20071;-71
2023/05/19 00:15:34;;;;;;;7.85;3.22;;;8.10;99.90;;;;;;5116577;28;20075;-72
2023/05/19 00:17:59;;;;;;;9.63;3.50;;;8.20;99.90;;;;;;5116144;28;20050;-71
2023/05/19 00:20:25;;;;;;;8.68;3.30;;;8.20;99.90;;;;;;5116092;28;20277;-72
2023/05/19 00:22:51;;;;;;;6.10;2.97;;;8.20;99.90;;;;;;5115964;28;20044;-71
2023/05/19 00:25:16;;;;;;;6.88;2.88;;;8.10;99.90;;;;;;5114589;28;20032;-72
2023/05/19 00:27:42;;;;;;;7.22;3.22;;;8.50;99.90;;;;;;5115874;28;20383;-72
2023/05/19 00:30:08;;;;;;;9.27;3.53;;;8.10;99.90;;;;;;5116090;28;20122;-71
2023/05/19 00:32:34;;;;;;;9.85;3.38;;;8.10;99.90;;;;;;5115626;28;20043;-71
2023/05/19 00:34:59;;;;;;;10.10;3.70;;;8.00;99.90;;;;;;5115774;28;20169;-71
2023/05/19 00:37:25;;;;;;;9.13;3.17;;;8.00;99.90;;;;;;5115599;28;20126;-71
2023/05/19 00:39:51;;;;;;;7.40;3.50;;;8.00;99.90;;;;;;5115500;28;20374;-71
2023/05/19 00:42:17;;;;;;;13.18;4.13;;;8.00;99.90;;;;;;5115509;28;20035;-72
2023/05/19 00:44:42;;;;;;;15.00;4.18;;;8.00;99.90;;;;;;5115445;28;20028;-71
2023/05/19 00:47:11;;;;;;;10.02;3.72;;;8.00;99.90;;;;;;5115465;28;20036;-72
2023/05/19 00:49:36;;;;;;;10.40;3.70;;;7.90;99.90;;;;;;5115507;28;20450;-72
2023/05/19 00:52:04;;;;;;;9.38;3.60;;;7.90;99.90;;;;;;5115177;28;20066;-72
2023/05/19 00:54:31;;;;;;;7.63;3.58;;;7.90;99.90;;;;;;5115093;28;20505;-71
2023/05/19 00:56:58;;;;;;;7.07;3.40;;;7.90;99.90;;;;;;5115162;28;20089;-71
2023/05/19 00:59:24;;;;;;;15.55;5.00;;;7.90;99.90;;;;;;5115128;28;20093;-70
2023/05/19 01:01:49;;;;;;;8.50;3.40;;;7.90;99.90;;;;;;5115041;28;20039;-71
2023/05/19 01:04:19;;;;;;;11.13;3.67;;;7.80;99.90;;;;;;5115281;28;20046;-71
2023/05/19 01:06:48;;;;;;;9.70;3.50;;;8.60;99.90;;;;;;5113690;28;20043;-72
2023/05/19 01:09:15;;;;;;;9.88;3.88;;;7.80;99.90;;;;;;5114919;28;20145;-71
2023/05/19 01:11:42;;;;;;;11.13;4.00;;;7.80;99.90;;;;;;5114913;28;20089;-71
2023/05/19 01:14:07;;;;;;;8.23;3.60;;;7.80;99.90;;;;;;5114873;28;20467;-71
2023/05/19 01:16:40;;;;;;;9.38;3.78;;;8.40;99.90;;;;;;5114868;28;20065;-73
2023/05/19 01:19:47;;;;;;;11.55;3.75;;;7.80;99.90;;;;;;5114902;28;20039;-73
2023/05/19 01:22:41;;;;;;;6.43;3.60;;;7.80;99.90;;;;;;5031241;28;20048;-71
2023/05/19 01:25:22;;;;;;;18.65;4.35;;;7.70;99.90;;;;;;5032082;28;20048;-72
2023/05/19 01:28:06;;;;;;;6.07;3.08;;;7.70;99.90;;;;;;5096296;28;20050;-72
2023/05/19 01:30:47;;;;;;;13.32;3.90;;;7.70;99.90;;;;;;5114967;28;20099;-71
2023/05/19 01:33:14;;;;;;;8.35;3.53;;;7.70;99.90;;;;;;5114645;27;20118;-72
2023/05/19 01:35:41;;;;;;;9.98;3.75;;;7.80;99.90;;;;;;5114449;28;20093;-71
2023/05/19 01:38:09;;;;;;;8.35;3.67;;;8.20;99.90;;;;;;5114366;28;20490;-71
2023/05/19 01:40:37;;;;;;;7.15;3.33;;;7.60;99.90;;;;;;5114421;28;20070;-72
2023/05/19 01:43:03;;;;;;;9.57;4.10;;;7.60;99.90;;;;;;5114727;28;20437;-72
2023/05/19 01:45:31;;;;;;;8.70;3.87;;;7.60;99.90;;;;;;5114730;28;20081;-72
2023/05/19 01:47:59;;;;;;;10.00;4.20;;;7.80;99.90;;;;;;5114445;28;20792;-72
2023/05/19 01:50:25;;;;;;;8.57;3.90;;;7.50;99.90;;;;;;5114688;28;20039;-73
2023/05/19 01:52:51;;;;;;;8.75;3.70;;;7.60;99.90;;;;;;5114377;28;20048;-71
2023/05/19 01:55:18;;;;;;;7.20;3.78;;;7.50;99.90;;;;;;5114909;28;20123;-72
2023/05/19 01:58:11;;;;;;;6.72;3.45;;;7.50;99.90;;;;;;5113154;28;20085;-71
2023/05/19 02:00:37;;;;;;;8.75;3.72;;;7.50;99.90;;;;;;5114457;28;20169;-72
2023/05/19 02:03:21;;;;;;;11.02;3.60;;;7.50;99.90;;;;;;5114183;28;20075;-72
2023/05/19 02:06:05;;;;;;;11.00;3.70;;;7.50;99.90;;;;;;5114544;28;20066;-71
2023/05/19 02:08:49;;;;;;;9.73;4.45;;;7.40;99.90;;;;;;5114136;28;20035;-71
2023/05/19 02:11:37;;;;;;;9.70;3.88;;;7.40;99.90;;;;;;5113836;28;20039;-71
2023/05/19 02:14:12;;;;;;;9.80;4.22;;;7.40;99.90;;;;;;5113195;28;20043;-72
2023/05/19 02:16:38;;;;;;;9.70;3.55;;;7.80;99.90;;;;;;5113603;28;20054;-71
2023/05/19 02:19:04;;;;;;;6.90;3.53;;;7.30;99.90;;;;;;5113973;28;20040;-71
2023/05/19 02:21:30;;;;;;;8.43;4.15;;;7.30;99.90;;;;;;5114041;28;20046;-71
2023/05/19 02:23:55;;;;;;;9.48;4.63;;;7.30;99.90;;;;;;5113975;28;20035;-72
2023/05/19 02:26:21;;;;;;;8.00;3.90;;;7.20;99.90;;;;;;5113837;28;20031;-72
2023/05/19 02:28:47;;;;;;;7.55;4.10;;;7.20;99.90;;;;;;5114418;28;20051;-71
2023/05/19 02:31:12;;;;;;;10.35;3.63;;;7.20;99.90;;;;;;5113984;28;20031;-71
2023/05/19 02:33:38;;;;;;;13.48;3.90;;;7.20;99.90;;;;;;5116742;28;20040;-72
2023/05/19 02:36:04;;;;;;;10.48;4.53;;;7.20;99.90;;;;;;5118050;28;20062;-72
2023/05/19 02:38:30;;;;;;;12.13;4.45;;;7.10;99.90;;;;;;5117856;28;20059;-72
2023/05/19 02:40:55;;;;;;;10.48;3.90;;;7.10;99.90;;;;;;5117553;28;20035;-73
2023/05/19 02:43:21;;;;;;;9.60;4.22;;;7.10;99.90;;;;;;5117921;28;20042;-71
2023/05/19 02:45:47;;;;;;;13.05;4.82;;;7.10;99.90;;;;;;5117868;28;20062;-71
2023/05/19 02:48:12;;;;;;;7.90;4.45;;;7.10;99.90;;;;;;5117816;28;20092;-69
2023/05/19 02:50:38;;;;;;;10.63;4.53;;;7.10;99.90;;;;;;5117639;28;20044;-70
2023/05/19 02:53:04;;;;;;;8.35;4.32;;;7.10;99.90;;;;;;5117867;28;20036;-69
2023/05/19 02:55:29;;;;;;;9.57;4.40;;;7.00;99.90;;;;;;5117552;28;20051;-69
2023/05/19 02:57:55;;;;;;;11.57;4.00;;;7.00;99.90;;;;;;5117396;28;20036;-70
2023/05/19 03:00:20;;;;;;;9.18;3.70;;;7.00;99.90;;;;;;5117533;28;20027;-70
2023/05/19 03:02:46;;;;;;;11.23;4.50;;;7.00;99.90;;;;;;5117659;28;20039;-72
2023/05/19 03:05:13;;;;;;;7.30;3.67;;;7.00;99.90;;;;;;5117709;28;20459;-71
2023/05/19 03:07:38;;;;;;;11.57;4.72;;;6.90;99.90;;;;;;5117438;28;20046;-71
2023/05/19 03:10:05;;;;;;;9.65;4.90;;;6.90;99.90;;;;;;5117104;28;20035;-71
2023/05/19 03:12:32;;;;;;;9.40;4.63;;;6.90;99.90;;;;;;5117716;28;20139;-72
2023/05/19 03:14:58;;;;;;;10.73;4.63;;;6.90;99.90;;;;;;5117458;28;20043;-71
2023/05/19 03:17:24;;;;;;;15.77;5.20;;;6.90;99.90;;;;;;5117300;28;20341;-71
2023/05/19 03:19:50;;;;;;;11.63;4.25;;;6.80;99.90;;;;;;5117398;28;20284;-71
2023/05/19 03:22:17;;;;;;;15.27;5.15;;;6.90;99.90;;;;;;5117120;28;20474;-71
2023/05/19 03:24:43;;;;;;;8.93;4.45;;;6.90;99.90;;;;;;5116991;28;20356;-70
2023/05/19 03:27:08;;;;;;;11.02;4.97;;;6.80;99.90;;;;;;5116672;28;20126;-71
2023/05/19 03:29:35;;;;;;;15.43;4.57;;;7.60;99.90;;;;;;5116889;28;20110;-70
2023/05/19 03:32:00;;;;;;;7.65;4.35;;;7.00;99.90;;;;;;5117371;28;20074;-71
2023/05/19 03:34:26;;;;;;;7.47;4.68;;;6.80;99.90;;;;;;5116810;28;20456;-72
2023/05/19 03:36:52;;;;;;;7.53;4.55;;;7.00;99.90;;;;;;5116654;28;20047;-72
2023/05/19 03:39:17;;;;;;;9.38;4.53;;;6.80;99.90;;;;;;5116913;28;20043;-71
2023/05/19 03:41:43;;;;;;;8.60;4.15;;;6.80;99.90;;;;;;5116728;28;20086;-70
2023/05/19 03:44:08;;;;;;;13.38;4.40;;;6.80;99.90;;;;;;5115942;28;20031;-71
2023/05/19 03:46:34;;;;;;;8.35;4.55;;;6.80;99.90;;;;;;5116670;28;20038;-71
2023/05/19 03:49:00;;;;;;;10.73;4.38;;;6.80;99.90;;;;;;5116882;28;20036;-71
2023/05/19 03:51:27;;;;;;;11.40;4.43;;;6.80;99.90;;;;;;5116441;28;20043;-71
2023/05/19 03:53:53;;;;;;;10.32;5.03;;;6.80;99.90;;;;;;5116533;28;20035;-71
2023/05/19 03:56:21;;;;;;;8.75;4.07;;;6.80;99.90;;;;;;5116278;28;20043;-71
2023/05/19 03:58:48;;;;;;;7.95;3.95;;;6.80;99.90;;;;;;5116385;28;20042;-70
2023/05/19 04:01:14;;;;;;;7.10;4.03;;;6.80;99.90;;;;;;5116213;28;20043;-71
2023/05/19 04:03:40;;;;;;;9.82;4.25;;;6.80;99.90;;;;;;5116385;28;20039;-69
2023/05/19 04:06:06;;;;;;;13.98;4.55;;;6.80;99.90;;;;;;5116418;27;20087;-70
2023/05/19 04:08:32;;;;;;;11.37;4.20;;;6.90;99.90;;;;;;5116213;28;20395;-71
2023/05/19 04:10:58;;;;;;;7.90;4.28;;;6.90;99.90;;;;;;5116109;28;20275;-70
2023/05/19 04:13:23;;;;;;;10.57;4.35;;;6.90;99.90;;;;;;5116086;28;20046;-70
2023/05/19 04:15:49;;;;;;;11.90;5.05;;;6.90;99.90;;;;;;5116039;28;20047;-71
2023/05/19 04:18:14;;;;;;;9.93;4.47;;;7.10;99.90;;;;;;5115988;28;20031;-69
2023/05/19 04:20:40;;;;;;;9.02;4.50;;;7.00;99.90;;;;;;5115793;28;20046;-71
2023/05/19 04:23:06;;;;;;;8.82;4.30;;;7.70;99.90;;;;;;5116279;28;20122;-71
2023/05/19 04:25:32;;;;;;;8.82;4.25;;;7.00;99.90;;;;;;5116128;28;20455;-71
2023/05/19 04:27:59;;;;;;;11.57;4.70;;;7.00;99.90;;;;;;5116266;28;20039;-70
2023/05/19 04:30:25;;;;;;;8.15;5.28;;;7.10;99.90;;;;;;5115820;28;20035;-71
2023/05/19 04:32:50;;;;;;;7.25;4.90;;;7.10;99.90;;;;;;5115724;28;20466;-70
2023/05/19 04:35:16;;;;;;;9.30;4.97;;;7.20;99.90;;;;;;5115712;28;20122;-70
2023/05/19 04:37:44;;;;;;;11.32;4.65;;;7.20;99.90;;;;;;5115544;28;20039;-70
2023/05/19 04:40:14;;;;;;;11.45;5.75;;;7.20;99.90;;;;;;5115545;28;20039;-71
2023/05/19 04:42:41;;;;;;;9.07;5.10;;;7.30;99.90;;;;;;5116006;28;20059;-71
2023/05/19 04:45:08;;;;;;;11.00;4.93;;;7.40;99.90;;;;;;5116338;28;20043;-69
2023/05/19 04:47:37;;;;;;;8.40;4.72;;;7.40;99.90;;;;;;5115458;28;20032;-70
2023/05/19 04:50:03;;;;;;;8.80;4.97;;;7.50;99.90;;;;;;5115387;27;20032;-69
2023/05/19 04:52:29;;;;;;;9.07;4.47;;;7.60;99.90;;;;;;5115649;28;20079;-71
2023/05/19 04:54:55;;;;;;;13.88;4.95;;;7.70;99.90;;;;;;5115234;28;20035;-70
2023/05/19 04:57:20;;;;;;;11.32;5.07;;;7.70;99.90;;;;;;5114338;28;20036;-71
2023/05/19 04:59:46;;;;;;;11.05;4.53;;;8.20;99.90;;;;;;5115397;28;20040;-70
2023/05/19 05:02:12;;;;;;;8.18;4.18;;;7.80;99.90;;;;;;5114031;28;20032;-71
2023/05/19 05:04:41;;;;;;;10.52;4.68;;;7.90;99.90;;;;;;5114895;28;20065;-70
2023/05/19 05:07:07;;;;;;;8.07;4.40;;;8.00;99.90;;;;;;5115130;28;20180;-71
2023/05/19 05:09:32;;;;;;;11.82;4.85;;;8.60;99.90;;;;;;5114905;28;20126;-71
2023/05/19 05:11:58;;;;;;;9.65;3.70;;;8.10;99.90;;;;;;5115036;28;20044;-70
2023/05/19 05:14:24;;;;;;;7.82;4.15;;;8.20;99.90;;;;;;5114998;28;20058;-70
2023/05/19 05:16:50;;;;;;;8.13;4.00;;;8.30;99.90;;;;;;5115069;28;20043;-71
2023/05/19 05:19:16;;;;;;;9.80;4.63;;;8.40;99.90;;;;;;5115069;28;20544;-70
2023/05/19 05:21:42;;;;;;;11.07;4.50;;;8.50;99.90;;;;;;5114829;27;20140;-70
2023/05/19 05:24:08;;;;;;;6.88;3.95;;;8.60;99.90;;;;;;5114700;28;20447;-71
2023/05/19 05:26:34;;;;;;;12.40;4.68;;;8.70;99.90;;;;;;5114481;28;20039;-70
2023/05/19 05:29:01;;;;;;;7.72;4.38;;;8.70;99.90;;;;;;5115042;28;20040;-69
2023/05/19 05:31:27;;;;;;;7.03;4.28;;;8.90;99.90;;;;;;5114650;28;20549;-71
2023/05/19 05:33:52;;;;;;;7.63;4.43;;;9.70;99.90;;;;;;5113932;28;20127;-71
2023/05/19 05:36:18;;;;;;;8.13;4.75;;;9.00;99.90;;;;;;5113549;28;20115;-72
2023/05/19 05:38:43;;;;;;;8.68;4.35;;;9.20;99.90;;;;;;5114437;28;20077;-71
2023/05/19 05:41:09;;;;;;;9.70;3.42;;;9.40;99.90;;;;;;5114493;28;20050;-71
2023/05/19 05:43:35;;;;;;;7.57;3.63;;;9.60;99.90;;;;;;5114498;28;20131;-71
2023/05/19 05:46:00;;;;;;;6.70;3.97;;;9.80;99.90;;;;;;5114276;28;20058;-70
2023/05/19 05:48:26;;;;;;;6.78;3.70;;;10.00;99.90;;;;;;5114334;28;20119;-70
2023/05/19 05:50:53;;;;;;;10.82;3.85;;;10.30;99.90;;;;;;5114386;28;20051;-70
2023/05/19 05:53:20;;;;;;;7.57;3.63;;;10.50;99.90;;;;;;5114247;28;20043;-72
2023/05/19 05:55:46;;;;;;;;;;;10.60;99.90;;;;;;5114422;28;20464;-71
2023/05/19 05:58:13;;;;;;;6.60;3.75;;;10.70;99.90;;;;;;5114203;28;20266;-72
2023/05/19 06:00:42;;;;;;;9.85;3.70;;;10.80;99.90;;;;;;5114253;28;20050;-70
2023/05/19 06:03:08;;;;;;;7.78;3.80;;;11.00;99.90;;;;;;5114215;28;20120;-72
2023/05/19 06:05:34;;;;;;;6.88;3.75;;;11.70;99.90;;;;;;5114411;28;20116;-71
2023/05/19 06:08:00;;;;;;;5.60;3.63;;;11.20;99.90;;;;;;5113678;28;20055;-70
2023/05/19 06:10:27;;;;;;;7.10;3.53;;;11.30;99.90;;;;;;5114168;28;20390;-70
2023/05/19 06:12:53;;;;;;;7.30;3.38;;;11.50;99.90;;;;;;5113044;28;20074;-72
2023/05/19 06:15:20;;;;;;;5.38;3.58;;;11.80;99.90;;;;;;5114622;28;20047;-71
2023/05/19 06:17:45;;;;;;;7.13;3.10;;;11.80;99.90;;;;;;5114063;28;20043;-71
2023/05/19 06:20:11;;;;;;;11.20;3.15;;;12.00;99.90;;;;;;5114050;28;20509;-70
2023/05/19 06:22:37;;;;;;;5.75;3.08;;;12.10;99.90;;;;;;5113931;28;20107;-70
2023/05/19 06:25:04;;;;;;;6.07;3.22;;;12.30;99.90;;;;;;5114020;28;20519;-72
2023/05/19 06:27:29;;;;;;;6.60;2.88;;;12.30;99.90;;;;;;5113669;28;20479;-71
2023/05/19 06:29:55;;;;;;;8.82;3.25;;;12.50;99.90;;;;;;5113648;28;20036;-71
2023/05/19 06:32:21;;;;;;;5.15;2.70;;;12.60;99.90;;;;;;5114021;28;20036;-71
2023/05/19 06:34:52;;;;;;;5.78;2.80;;;12.80;99.90;;;;;;5113852;28;20042;-72
2023/05/19 06:37:21;;;;;;;5.22;3.13;;;12.90;99.90;;;;;;5113737;28;20031;-71
2023/05/19 06:39:48;;;;;;;6.95;2.92;;;12.90;99.90;;;;;;5113847;28;20038;-73
2023/05/19 06:42:13;;;;;;;;;;;13.10;99.90;;;;;;5114223;28;20040;-72
2023/05/19 06:44:39;;;;;;;6.03;2.63;;;13.20;99.90;;;;;;5113981;28;20284;-71
2023/05/19 06:47:05;;;;;;;5.07;2.63;;;13.20;99.90;;;;;;5113751;28;20096;-72
2023/05/19 06:49:30;;;;;;;4.78;2.70;;;13.40;99.90;;;;;;5113783;28;20036;-72
2023/05/19 06:51:56;;;;;;;7.30;2.35;;;13.40;99.90;;;;;;5113588;28;20035;-71
2023/05/19 06:54:22;;;;;;;4.72;2.28;;;13.50;99.90;;;;;;5113706;28;20123;-72
2023/05/19 06:56:47;;;;;;;6.47;2.42;;;13.50;99.90;;;;;;5113637;28;20061;-71
2023/05/19 06:59:13;;;;;;;6.80;2.30;;;13.50;99.90;;;;;;5114083;28;20055;-71
2023/05/19 07:01:38;;;;;;;5.53;2.33;;;13.60;99.90;;;;;;5113647;28;20035;-71
2023/05/19 07:04:04;;;;;;;4.60;2.10;;;13.60;99.90;;;;;;5113670;28;20039;-72
2023/05/19 07:06:30;;;;;;;5.63;2.30;;;13.80;99.90;;;;;;5113478;28;20479;-71
2023/05/19 07:08:55;;;;;;;5.97;2.55;;;13.90;99.90;;;;;;5113337;28;20040;-73
2023/05/19 07:11:21;;;;;;;5.30;3.08;;;14.00;99.90;;;;;;5113247;28;20043;-72
2023/05/19 07:13:47;;;;;;;6.85;2.05;;;14.00;99.90;;;;;;5113698;28;20075;-71
2023/05/19 07:16:12;;;;;;;7.13;2.10;;;14.20;99.90;;;;;;5113602;28;20455;-72
2023/05/19 07:18:38;;;;;;;5.72;1.92;;;14.30;99.90;;;;;;5113450;28;20039;-72
2023/05/19 07:21:03;;;;;;;3.13;1.77;;;14.20;99.90;;;;;;5116532;28;20475;-71
2023/05/19 07:23:29;;;;;;;6.40;2.33;;;14.30;99.90;;;;;;5117270;28;20035;-72
2023/05/19 07:25:55;;;;;;;3.80;2.03;;;14.70;99.90;;;;;;5117062;28;20459;-72
2023/05/19 07:28:20;;;;;;;9.07;2.00;;;14.60;99.90;;;;;;5117073;28;20040;-72
2023/05/19 07:30:47;;;;;;;5.18;2.40;;;14.80;99.90;;;;;;5116942;28;20101;-72
2023/05/19 07:33:12;;;;;;;4.33;1.60;;;14.90;99.90;;;;;;5116842;28;20035;-72
2023/05/19 07:35:38;;;;;;;3.28;2.08;;;15.00;99.90;;;;;;5116780;28;20463;-72
2023/05/19 07:38:06;;;;;;;5.53;1.88;;;15.10;99.90;;;;;;5116721;28;20035;-72
2023/05/19 07:40:31;;;;;;;3.03;1.88;;;15.10;99.90;;;;;;5116721;28;20126;-72
2023/05/19 07:42:57;;;;;;;4.57;1.90;;;15.20;99.90;;;;;;5116623;28;20118;-71
2023/05/19 07:45:22;;;;;;;6.53;2.20;;;15.40;99.90;;;;;;5116567;28;20036;-72
2023/05/19 07:47:48;;;;;;;7.27;2.20;;;15.40;99.90;;;;;;5116621;28;20088;-72
2023/05/19 07:50:15;;;;;;;4.35;2.10;;;15.40;99.90;;;;;;5116490;28;20039;-72
2023/05/19 07:52:40;;;;;;;3.63;2.05;;;15.50;99.90;;;;;;5116252;28;20122;-72
2023/05/19 07:55:06;;;;;;;5.00;2.25;;;15.60;99.90;;;;;;5116506;28;20079;-72
2023/05/19 07:57:31;;;;;;;3.27;1.63;;;15.60;99.90;;;;;;5116350;28;20450;-72
2023/05/19 07:59:57;;;;;;;4.63;1.90;;;15.70;99.90;;;;;;5116647;28;20135;-71
2023/05/19 08:02:22;;;;;;;7.73;1.90;;;15.70;99.90;;;;;;5115959;28;20039;-70
2023/05/19 08:04:48;;;;;;;5.20;1.63;;;15.80;99.90;;;;;;5116175;28;20043;-72
2023/05/19 08:07:14;;;;;;;6.73;1.83;;;15.90;99.90;;;;;;5116207;28;20074;-71
2023/05/19 08:09:39;;;;;;;4.20;1.60;;;16.10;99.90;;;;;;5116646;28;20044;-72
2023/05/19 08:12:05;;;;;;;8.37;1.93;;;16.20;99.90;;;;;;5116175;28;20132;-73
2023/05/19 08:14:32;;;;;;;10.70;2.22;;;16.30;99.90;;;;;;5116035;28;20475;-73
2023/05/19 08:16:57;;;;;;;5.93;1.98;;;16.40;99.90;;;;;;5115981;28;20084;-72
2023/05/19 08:19:23;;;;;;;5.75;1.73;;;16.50;99.90;;;;;;5115780;28;20413;-71
2023/05/19 08:21:49;;;;;;;4.10;1.90;;;16.40;99.90;;;;;;5115936;28;20035;-72
2023/05/19 08:24:14;;;;;;;8.07;1.60;;;16.50;99.90;;;;;;5115930;28;20040;-72
2023/05/19 08:26:40;;;;;;;4.25;1.40;;;16.50;99.90;;;;;;5116257;28;20046;-72
2023/05/19 08:29:06;;;;;;;4.70;1.88;;;16.50;99.90;;;;;;5115837;28;20040;-71
2023/05/19 08:31:32;;;;;;;6.77;1.90;;;16.60;99.90;;;;;;5115502;28;20455;-72
2023/05/19 08:33:57;;;;;;;3.27;1.40;;;16.80;99.90;;;;;;5115752;28;20039;-71
2023/05/19 08:36:23;;;;;;;6.47;1.70;;;16.90;99.90;;;;;;5115679;28;20518;-72
2023/05/19 08:38:49;;;;;;;4.20;1.27;;;17.00;99.90;;;;;;5115648;27;20184;-71
2023/05/19 08:41:15;;;;;;;3.78;1.40;;;17.10;99.90;;;;;;5115881;28;20039;-72
2023/05/19 08:43:41;;;;;;;6.63;2.07;;;17.20;99.90;;;;;;5115844;28;20039;-72
2023/05/19 08:46:09;;;;;;;5.40;1.90;;;17.30;99.90;;;;;;5115529;28;20039;-77
2023/05/19 08:48:40;;;;;;;3.80;1.35;;;17.30;99.90;;;;;;5114282;28;20386;-71
2023/05/19 08:51:27;;;;;;;5.22;1.52;;;17.50;99.90;;;;;;5112111;28;20372;-71
2023/05/19 08:53:59;;;;;;;4.50;1.50;;;17.60;99.90;;;;;;5103930;28;20040;-70
2023/05/19 08:56:25;;;;;;;4.60;1.60;;;17.60;99.90;;;;;;5094923;28;20422;-72
2023/05/19 08:58:51;;;;;;;4.18;1.30;;;17.50;99.90;;;;;;5094732;28;20036;-71
2023/05/19 09:01:18;;;;;;;3.77;1.50;;;17.50;99.90;;;;;;5094333;28;20093;-71
2023/05/19 09:03:45;;;;;;;4.18;1.50;;;17.50;99.90;;;;;;5094764;28;20074;-72
2023/05/19 09:06:11;;;;;;;10.35;2.13;;;17.50;99.90;;;;;;5094514;28;20466;-72
2023/05/19 09:08:38;;;;;;;5.37;1.67;;;17.60;99.90;;;;;;5093598;28;20040;-72
2023/05/19 09:11:04;;;;;;;5.07;1.48;;;17.60;99.90;;;;;;5094455;28;20289;-71
2023/05/19 09:13:30;;;;;;;3.83;1.77;;;17.70;99.80;;;;;;5093473;28;20040;-72
2023/05/19 09:15:56;;;;;;;4.70;1.60;;;17.60;98.70;;;;;;5094548;28;20115;-72
2023/05/19 09:18:27;;;;;;;4.82;1.50;;;17.60;99.50;;;;;;5094329;28;20052;-72
2023/05/19 09:21:01;;;;;;;3.47;1.40;;;17.70;99.90;;;;;;5094510;28;20044;-71
2023/05/19 09:23:30;;;;;;;3.08;1.40;;;17.70;99.90;;;;;;5094478;28;20043;-72
2023/05/19 09:25:56;;;;;;;4.82;1.92;;;17.90;99.90;;;;;;5094397;28;20065;-72
2023/05/19 09:28:32;;;;;;;3.90;1.43;;;18.00;98.20;;;;;;5094435;28;20101;-72
2023/05/19 09:31:02;;;;;;;3.13;1.38;;;18.00;99.10;;;;;;5094842;28;20040;-72
2023/05/19 09:33:28;;;;;;;5.45;1.40;;;18.20;99.40;;;;;;5094216;28;20040;-72
2023/05/19 09:35:55;;;;;;;5.20;1.60;;;18.30;98.80;;;;;;5094252;28;20046;-71
2023/05/19 09:38:23;;;;;;;4.00;1.60;;;18.20;98.30;;;;;;5094120;28;20044;-69
2023/05/19 09:40:48;;;;;;;4.78;1.85;;;18.30;98.70;;;;;;5094092;28;20043;-69
2023/05/19 09:43:15;;;;;;;3.13;1.40;;;18.30;99.00;;;;;;5093446;28;20379;-70
2023/05/19 09:45:41;;;;;;;3.70;1.38;;;18.40;98.20;;;;;;5094499;28;20126;-70
2023/05/19 09:48:06;;;;;;;7.17;1.63;;;18.50;98.20;;;;;;5094007;28;20451;-70
2023/05/19 09:50:32;;;;;;;5.20;1.33;;;18.70;98.80;;;;;;5093711;28;20043;-70
2023/05/19 09:52:59;;;;;;;5.07;1.47;;;18.90;99.00;;;;;;5094200;28;20040;-71
2023/05/19 09:55:27;;;;;;;4.43;1.67;;;19.00;98.70;;;;;;5094003;28;20093;-70
2023/05/19 09:57:59;;;;;;;4.60;1.55;;;19.10;98.60;;;;;;5093621;28;20050;-71
2023/05/19 10:00:26;;;;;;;4.18;1.70;;;19.20;98.10;;;;;;5094007;28;20418;-71
2023/05/19 10:02:52;;;;;;;3.78;1.48;;;19.30;97.30;;;;;;5093727;28;20035;-70
2023/05/19 10:05:19;;;;;;;5.40;1.45;;;19.20;97.10;;;;;;5093721;28;20055;-70
2023/05/19 10:07:51;;;;;;;4.53;1.83;;;19.20;96.60;;;;;;5093729;28;20058;-71
2023/05/19 10:10:21;;;;;;;3.38;1.52;;;19.20;95.70;;;;;;5093678;28;20042;-70
2023/05/19 10:12:47;;;;;;;3.80;1.30;;;19.20;97.30;;;;;;5093977;28;20417;-70
2023/05/19 10:15:15;;;;;;;5.95;1.88;;;19.30;96.50;;;;;;5092366;28;20080;-71
2023/05/19 10:17:42;;;;;;;3.92;1.30;;;19.40;96.50;;;;;;5093363;28;20529;-71
2023/05/19 10:20:16;;;;;;;3.55;1.20;;;19.40;96.10;;;;;;5093434;28;20032;-71
2023/05/19 10:22:44;;;;;;;5.60;1.60;;;19.40;96.40;;;;;;5093657;28;20388;-72
2023/05/19 10:25:13;;;;;;;4.63;1.42;;;19.40;95.40;;;;;;5093448;28;20044;-72
2023/05/19 10:27:51;;;;;;;3.38;1.27;;;19.40;95.40;;;;;;5093542;28;20054;-71
2023/05/19 10:30:19;;;;;;;;;;;19.50;95.10;;;;;;5093822;28;20040;-71
2023/05/19 10:32:47;;;;;;;;;;;19.60;94.60;;;;;;5093895;28;19916;-70
2023/05/19 10:35:12;;;;;;;;;;;19.70;94.30;;;;;;5093915;28;19923;-72
2023/05/19 10:38:11;;;;;;;3.35;1.30;;;19.90;94.60;;;;;;5093270;28;20314;-71
2023/05/19 10:40:54;;;;;;;3.83;1.30;;;19.80;94.40;;;;;;5093421;28;20047;-71
2023/05/19 10:43:43;;;;;;;4.00;1.00;;;19.90;94.10;;;;;;5093393;28;20131;-71
2023/05/19 10:46:09;;;;;;;5.72;1.67;;;20.10;93.70;;;;;;5093297;28;20047;-72
2023/05/19 10:48:35;;;;;;;4.17;1.50;;;20.20;92.90;;;;;;5093619;28;20036;-71
2023/05/19 10:51:01;;;;;;;4.93;1.23;;;20.30;94.10;;;;;;5093236;28;20131;-71
2023/05/19 10:53:33;;;;;;;4.88;1.48;;;20.40;93.80;;;;;;5094044;28;20058;-71
2023/05/19 10:56:02;;;;;;;3.13;1.48;;;20.40;92.60;;;;;;5097197;28;20097;-70
2023/05/19 10:58:38;;;;;;;4.32;1.30;;;20.50;93.40;;;;;;5096747;28;20087;-71
2023/05/19 11:01:13;;;;;;;3.20;1.13;;;20.60;93.30;;;;;;5097076;28;20048;-71
2023/05/19 11:04:02;;;;;;;4.35;1.23;;;20.40;92.90;;;;;;5097006;28;20039;-72
2023/05/19 11:06:34;;;;;;;3.65;1.38;;;20.50;91.80;;;;;;5096600;28;20531;-71
2023/05/19 11:09:12;;;;;;;3.45;1.20;;;20.70;92.30;;;;;;5096930;28;20048;-71
2023/05/19 11:11:46;;;;;;;5.10;1.45;;;20.50;92.10;;;;;;5096946;28;20040;-72
2023/05/19 11:14:17;;;;;;;3.78;1.25;;;20.40;93.10;;;;;;5096864;28;20493;-72
2023/05/19 11:16:55;;;;;;;4.10;1.52;;;20.20;92.50;;;;;;5096860;28;20079;-71
2023/05/19 11:19:27;;;;;;;3.15;1.45;;;20.20;92.80;;;;;;5096355;28;20377;-70
2023/05/19 11:21:54;;;;;;;4.03;1.30;;;20.40;92.60;;;;;;5096687;28;20039;-71
2023/05/19 11:24:43;;;;;;;3.08;1.20;;;20.50;92.30;;;;;;5096516;28;20123;-71
2023/05/19 11:27:29;;;;;;;4.22;1.30;;;20.50;92.20;;;;;;5096608;28;20044;-70
2023/05/19 11:29:58;;;;;;;3.35;1.40;;;20.40;91.20;;;;;;5094989;28;20472;-69
2023/05/19 11:32:37;;;;;;;4.40;1.40;;;20.50;91.80;;;;;;5096100;28;20384;-70
2023/05/19 11:35:04;;;;;;;4.47;1.33;;;20.40;92.70;;;;;;5096415;28;20483;-71
2023/05/19 11:37:33;;;;;;;3.20;1.30;;;20.50;92.50;;;;;;5096240;28;20040;-70
2023/05/19 11:40:06;;;;;;;3.78;1.30;;;20.50;91.90;;;;;;5096270;28;20036;-70
2023/05/19 11:42:35;;;;;;;4.30;1.48;;;20.50;90.70;;;;;;5096245;28;20039;-71
2023/05/19 11:45:01;;;;;;;3.50;1.50;;;20.60;91.60;;;;;;5096359;28;20044;-71
2023/05/19 11:47:27;;;;;;;5.07;1.42;;;20.50;92.30;;;;;;5096287;28;20036;-71
2023/05/19 11:49:55;;;;;;;4.73;1.30;;;20.50;92.90;;;;;;5096274;28;20039;-71
2023/05/19 11:52:26;;;;;;;3.40;1.50;;;20.60;93.00;;;;;;5096164;28;20036;-70
2023/05/19 11:54:52;;;;;;;3.00;1.20;;;20.50;92.60;;;;;;5096093;28;20044;-70
2023/05/19 11:57:18;;;;;;;7.33;1.40;;;20.50;92.40;;;;;;5096307;28;20066;-70
2023/05/19 11:59:46;;;;;;;2.28;1.10;;;20.50;92.50;;;;;;5095987;28;20039;-70
2023/05/19 12:02:15;;;;;;;6.70;1.45;;;20.50;91.40;;;;;;5095924;28;20040;-70
2023/05/19 12:04:40;;;;;;;6.85;1.42;;;20.70;90.30;;;;;;5095336;28;20085;-70
2023/05/19 12:07:06;;;;;;;5.20;1.27;;;20.70;91.60;;;;;;5095548;28;20043;-71
2023/05/19 12:09:31;;;;;;;6.90;1.90;;;20.80;91.40;;;;;;5095805;28;20376;-71
2023/05/19 12:11:57;;;;;;;1.80;1.10;;;20.70;91.60;;;;;;5096300;28;20114;-71
2023/05/19 12:14:25;;;;;;;4.87;1.40;;;20.60;92.10;;;;;;5095861;28;20040;-71
2023/05/19 12:16:50;;;;;;;2.25;1.33;;;20.40;91.70;;;;;;5095781;28;20040;-71
2023/05/19 12:19:16;;;;;;;5.83;1.50;;;20.30;92.40;;;;;;5095545;28;20032;-72
2023/05/19 12:21:42;;;;;;;6.33;1.70;;;20.40;92.60;;;;;;5094584;28;20414;-72
2023/05/19 12:24:08;;;;;;;3.20;1.45;;;20.50;92.80;;;;;;5095571;28;20028;-69
2023/05/19 12:26:35;;;;;;;3.63;1.20;;;20.50;92.60;;;;;;5095958;28;20036;-71
2023/05/19 12:29:04;;;;;;;4.32;1.58;;;20.50;92.20;;;;;;5095350;28;20085;-72
2023/05/19 12:31:29;;;;;;;4.03;1.55;;;20.40;91.80;;;;;;5095280;28;20327;-70
2023/05/19 12:33:55;;;;;;;5.17;1.43;;;20.60;91.20;;;;;;5095339;28;20480;-71
2023/05/19 12:36:23;;;;;;;3.60;1.40;;;20.80;91.60;;;;;;5095318;28;20043;-71
2023/05/19 12:38:53;;;;;;;5.95;1.50;;;21.20;91.50;;;;;;5095133;28;20068;-70
2023/05/19 12:41:19;;;;;;;4.75;1.65;;;21.30;91.50;;;;;;5095230;28;20429;-71
2023/05/19 12:43:44;;;;;;;3.47;1.33;;;21.50;90.30;;;;;;5095106;28;20040;-71
2023/05/19 12:46:11;;;;;;;2.20;1.27;;;21.70;90.10;;;;;;5095136;28;20044;-70
2023/05/19 12:48:41;;;;;;;4.25;1.63;;;21.90;91.10;;;;;;5095092;28;20491;-70
2023/05/19 12:51:07;;;;;;;6.82;1.65;;;21.70;90.80;;;;;;5095178;28;20093;-71
2023/05/19 12:53:33;;;;;;;7.20;1.43;;;21.40;90.40;;;;;;5094925;28;20048;-71